createdAt,value
2024-02-02T00:01:07.482Z,3.60
2024-02-02T00:03:34.278Z,3.60
2024-02-02T00:06:00.991Z,4.07
2024-02-02T00:08:27.654Z,3.75
2024-02-02T00:10:54.380Z,3.25
2024-02-02T00:13:21.053Z,3.17
2024-02-02T00:15:47.716Z,3.38
2024-02-02T00:18:14.521Z,4.05
2024-02-02T00:20:41.220Z,2.50
2024-02-02T00:23:07.813Z,3.70
2024-02-02T00:25:34.432Z,3.55
2024-02-02T00:28:01.056Z,3.28
2024-02-02T00:30:27.700Z,3.35
2024-02-02T00:32:54.534Z,3.42
2024-02-02T00:35:21.266Z,3.17
2024-02-02T00:37:47.867Z,3.30
2024-02-02T00:40:15.186Z,3.20
2024-02-02T00:42:42.658Z,3.20
2024-02-02T00:45:09.608Z,2.95
2024-02-02T00:47:36.315Z,2.90
2024-02-02T00:50:03.077Z,2.30
2024-02-02T00:52:29.704Z,3.20
2024-02-02T00:54:56.318Z,2.08
2024-02-02T00:57:23.039Z,2.78
2024-02-02T00:59:49.792Z,2.97
2024-02-02T01:02:16.621Z,3.53
2024-02-02T01:04:43.484Z,1.95
2024-02-02T01:07:10.669Z,3.50
2024-02-02T01:09:38.062Z,2.47
2024-02-02T01:12:05.078Z,2.88
2024-02-02T01:14:31.812Z,3.38
2024-02-02T01:16:58.492Z,3.10
2024-02-02T01:19:25.336Z,4.63
2024-02-02T01:21:52.242Z,2.67
2024-02-02T01:24:18.995Z,2.97
2024-02-02T01:26:45.678Z,4.10
2024-02-02T01:29:12.462Z,3.45
2024-02-02T01:31:39.056Z,2.55
2024-02-02T01:34:05.872Z,2.85
2024-02-02T01:36:32.576Z,2.22
2024-02-02T01:38:59.260Z,2.42
2024-02-02T01:41:26.047Z,2.92
2024-02-02T01:43:52.643Z,2.80
2024-02-02T01:46:19.280Z,2.75
2024-02-02T01:48:46.009Z,2.78
2024-02-02T01:51:12.766Z,2.55
2024-02-02T01:53:39.654Z,3.28
2024-02-02T01:56:06.840Z,3.20
2024-02-02T01:58:33.527Z,2.28
2024-02-02T02:01:01.208Z,2.85
2024-02-02T02:03:28.072Z,3.22
2024-02-02T02:05:55.239Z,2.90
2024-02-02T02:08:22.199Z,3.97
2024-02-02T02:10:49.142Z,3.03
2024-02-02T02:13:15.907Z,3.08
2024-02-02T02:15:42.696Z,3.35
2024-02-02T02:18:09.404Z,2.60
2024-02-02T02:20:36.914Z,3.25
2024-02-02T02:23:03.736Z,3.38
2024-02-02T02:25:31.344Z,3.15
2024-02-02T02:27:57.947Z,2.75
2024-02-02T02:30:24.674Z,3.97
2024-02-02T02:32:51.470Z,3.47
2024-02-02T02:35:18.174Z,3.75
2024-02-02T02:37:44.847Z,2.72
2024-02-02T02:40:11.697Z,3.33
2024-02-02T02:42:38.423Z,3.75
2024-02-02T02:45:05.564Z,3.60
2024-02-02T02:47:32.311Z,3.22
2024-02-02T02:49:59.000Z,3.20
2024-02-02T02:52:25.737Z,2.90
2024-02-02T02:54:52.419Z,2.90
2024-02-02T02:57:19.131Z,2.90
2024-02-02T02:59:45.781Z,3.10
2024-02-02T03:02:12.425Z,3.20
2024-02-02T03:04:39.103Z,2.95
2024-02-02T03:07:05.922Z,4.05
2024-02-02T03:09:32.762Z,3.97
2024-02-02T03:11:59.549Z,3.70
2024-02-02T03:14:26.244Z,4.32
2024-02-02T03:16:52.940Z,3.58
2024-02-02T03:19:19.684Z,4.50
2024-02-02T03:21:46.410Z,4.22
2024-02-02T03:24:13.068Z,3.30
2024-02-02T03:26:39.703Z,3.45
2024-02-02T03:29:06.303Z,3.70
2024-02-02T03:31:32.973Z,4.68
2024-02-02T03:33:59.713Z,3.67
2024-02-02T03:36:26.495Z,4.32
2024-02-02T03:38:53.216Z,4.82
2024-02-02T03:41:19.822Z,4.80
2024-02-02T03:43:46.419Z,4.30
2024-02-02T03:46:13.168Z,5.07
2024-02-02T03:48:39.857Z,4.53
2024-02-02T03:51:06.524Z,6.22
2024-02-02T03:53:33.176Z,4.97
2024-02-02T03:55:59.795Z,4.93
2024-02-02T03:58:26.409Z,4.60
2024-02-02T04:00:53.036Z,4.53
2024-02-02T04:03:19.905Z,5.05
2024-02-02T04:05:46.634Z,5.38
2024-02-02T04:08:13.368Z,4.05
2024-02-02T04:10:39.999Z,4.55
2024-02-02T04:13:06.657Z,3.95
2024-02-02T04:15:33.945Z,3.78
2024-02-02T04:18:00.997Z,3.38
2024-02-02T04:20:27.772Z,3.47
2024-02-02T04:22:54.429Z,3.67
2024-02-02T04:25:21.032Z,3.15
2024-02-02T04:27:47.661Z,4.47
2024-02-02T04:30:14.686Z,3.40
2024-02-02T04:32:41.943Z,3.50
2024-02-02T04:35:08.736Z,3.05
2024-02-02T04:37:35.338Z,3.22
2024-02-02T04:40:02.082Z,3.20
2024-02-02T04:42:28.808Z,3.80
2024-02-02T04:44:55.540Z,3.80
2024-02-02T04:47:22.162Z,3.80
2024-02-02T04:49:49.126Z,3.25
2024-02-02T04:52:15.849Z,3.05
2024-02-02T04:54:42.472Z,4.07
2024-02-02T04:57:09.044Z,3.58
2024-02-02T04:59:35.676Z,3.25
2024-02-02T05:02:06.060Z,3.75
2024-02-02T05:04:33.428Z,3.05
2024-02-02T05:07:00.984Z,2.95
2024-02-02T05:09:28.180Z,2.70
2024-02-02T05:11:54.946Z,2.55
2024-02-02T05:14:21.571Z,2.47
2024-02-02T05:16:48.134Z,2.70
2024-02-02T05:19:14.864Z,3.17
2024-02-02T05:21:42.017Z,3.38
2024-02-02T05:24:21.759Z,3.67
2024-02-02T05:26:55.319Z,2.58
2024-02-02T05:29:21.948Z,2.92
2024-02-02T05:31:48.530Z,3.08
2024-02-02T05:34:15.724Z,2.08
2024-02-02T05:36:42.386Z,2.92
2024-02-02T05:39:08.998Z,2.90
2024-02-02T05:41:35.667Z,3.17
2024-02-02T05:44:02.372Z,2.92
2024-02-02T05:46:29.546Z,2.70
2024-02-02T05:48:56.285Z,2.53
2024-02-02T05:51:23.271Z,3.13
2024-02-02T05:53:49.997Z,2.42
2024-02-02T05:56:16.667Z,2.85
2024-02-02T05:58:43.284Z,2.22
2024-02-02T06:01:10.518Z,3.20
2024-02-02T06:03:37.320Z,2.30
2024-02-02T06:06:04.144Z,2.72
2024-02-02T06:08:30.770Z,2.05
2024-02-02T06:10:57.418Z,1.73
2024-02-02T06:13:24.291Z,3.15
2024-02-02T06:15:50.891Z,2.97
2024-02-02T06:18:18.077Z,3.25
2024-02-02T06:20:44.908Z,3.03
2024-02-02T06:23:11.487Z,3.03
2024-02-02T06:25:38.088Z,2.53
2024-02-02T06:28:04.916Z,3.00
2024-02-02T06:30:31.561Z,3.13
2024-02-02T06:32:58.199Z,2.45
2024-02-02T06:35:24.835Z,1.95
2024-02-02T06:37:51.536Z,2.35
2024-02-02T06:40:18.248Z,2.08
2024-02-02T06:42:44.831Z,2.63
2024-02-02T06:45:11.581Z,2.60
2024-02-02T06:47:38.972Z,2.22
2024-02-02T06:50:09.426Z,1.95
2024-02-02T06:52:36.778Z,2.30
2024-02-02T06:55:04.189Z,2.13
2024-02-02T06:57:31.566Z,2.65
2024-02-02T06:59:59.257Z,2.30
2024-02-02T07:02:29.957Z,2.28
2024-02-02T07:04:56.723Z,2.35
2024-02-02T07:07:23.690Z,2.17
2024-02-02T07:09:52.412Z,2.50
2024-02-02T07:12:53.972Z,2.33
2024-02-02T07:15:42.391Z,1.80
2024-02-02T07:18:39.975Z,2.17
2024-02-02T07:21:07.003Z,2.40
2024-02-02T07:23:35.766Z,2.00
2024-02-02T07:26:05.828Z,1.45
2024-02-02T07:28:35.821Z,1.95
2024-02-02T07:31:03.149Z,1.77
2024-02-02T07:33:42.858Z,1.90
2024-02-02T07:36:32.557Z,2.30
2024-02-02T07:38:59.607Z,1.90
2024-02-02T07:41:27.545Z,1.38
2024-02-02T07:44:01.286Z,2.20
2024-02-02T07:46:28.351Z,1.48
2024-02-02T07:48:55.858Z,2.33
2024-02-02T07:51:23.223Z,1.63
2024-02-02T07:53:50.209Z,1.50
2024-02-02T07:56:17.536Z,1.92
2024-02-02T07:58:44.382Z,1.60
2024-02-02T08:01:11.298Z,2.03
2024-02-02T08:03:38.592Z,1.73
2024-02-02T08:06:07.309Z,1.70
2024-02-02T08:08:34.523Z,2.58
2024-02-02T08:11:01.258Z,1.75
2024-02-02T08:13:28.185Z,1.80
2024-02-02T08:15:55.304Z,1.55
2024-02-02T08:18:21.984Z,1.50
2024-02-02T08:20:48.826Z,1.98
2024-02-02T08:23:15.561Z,1.48
2024-02-02T08:25:42.183Z,1.83
2024-02-02T08:28:08.869Z,2.05
2024-02-02T08:30:35.694Z,1.85
2024-02-02T08:33:02.691Z,1.80
2024-02-02T08:35:29.352Z,1.67
2024-02-02T08:38:01.053Z,1.63
2024-02-02T08:40:40.020Z,1.58
2024-02-02T08:43:12.576Z,1.35
2024-02-02T08:45:42.053Z,1.52
2024-02-02T08:48:31.410Z,1.50
2024-02-02T08:50:59.460Z,1.10
2024-02-02T08:53:27.154Z,1.80
2024-02-02T08:56:01.275Z,1.92
2024-02-02T08:58:29.978Z,1.80
2024-02-02T09:00:56.743Z,1.90
2024-02-02T09:03:47.766Z,1.48
2024-02-02T09:06:33.365Z,1.23
2024-02-02T09:09:00.433Z,3.88
2024-02-02T09:11:27.321Z,1.65
2024-02-02T09:14:09.535Z,2.00
2024-02-02T09:16:42.935Z,1.42
2024-02-02T09:19:28.445Z,1.88
2024-02-02T09:21:57.293Z,1.58
2024-02-02T09:24:42.041Z,1.67
2024-02-02T09:27:23.868Z,1.73
2024-02-02T09:29:52.799Z,1.58
2024-02-02T09:32:19.415Z,1.17
2024-02-02T09:34:47.390Z,1.58
2024-02-02T09:37:28.810Z,1.73
2024-02-02T09:39:56.712Z,1.42
2024-02-02T09:42:42.252Z,1.90
2024-02-02T09:45:13.214Z,1.90
2024-02-02T09:47:52.486Z,1.77
2024-02-02T09:50:39.087Z,1.70
2024-02-02T09:53:23.646Z,2.00
2024-02-02T09:56:25.766Z,1.15
2024-02-02T09:59:30.758Z,1.42
2024-02-02T10:01:57.353Z,1.65
2024-02-02T10:05:01.242Z,2.25
2024-02-02T10:07:39.248Z,1.27
2024-02-02T10:10:34.513Z,1.50
2024-02-02T10:13:20.470Z,2.00
2024-02-02T10:15:51.759Z,2.33
2024-02-02T10:18:59.064Z,1.40
2024-02-02T10:21:55.379Z,1.75
2024-02-02T10:24:47.165Z,1.83
2024-02-02T10:27:16.664Z,1.63
2024-02-02T10:29:56.058Z,1.58
2024-02-02T10:32:52.937Z,2.08
2024-02-02T10:35:49.090Z,1.80
2024-02-02T10:38:22.018Z,1.63
2024-02-02T10:40:56.067Z,1.65
2024-02-02T10:43:35.125Z,2.38
2024-02-02T10:46:20.562Z,2.63
2024-02-02T10:49:28.843Z,2.28
2024-02-02T10:52:18.695Z,2.00
2024-02-02T10:55:12.368Z,2.17
2024-02-02T10:57:51.825Z,2.22
2024-02-02T11:00:22.179Z,2.25
2024-02-02T11:03:04.057Z,2.42
2024-02-02T11:06:06.836Z,2.88
2024-02-02T11:08:41.838Z,2.58
2024-02-02T11:11:20.432Z,2.28
2024-02-02T11:13:58.873Z,1.77
2024-02-02T11:16:34.343Z,2.30
2024-02-02T11:19:26.126Z,2.60
2024-02-02T11:22:17.852Z,1.90
2024-02-02T11:25:30.433Z,2.00
2024-02-02T11:28:16.178Z,2.53
2024-02-02T11:30:51.868Z,1.98
2024-02-02T11:33:37.683Z,2.00
2024-02-02T11:36:45.600Z,2.13
2024-02-02T11:39:43.987Z,1.90
2024-02-02T11:42:12.514Z,2.42
2024-02-02T11:44:43.527Z,2.17
2024-02-02T11:47:11.866Z,2.00
2024-02-02T11:49:45.140Z,2.60
2024-02-02T11:52:27.124Z,2.65
2024-02-02T11:55:11.632Z,2.40
2024-02-02T11:57:44.598Z,2.42
2024-02-02T12:00:34.592Z,2.22
2024-02-02T12:03:14.943Z,2.30
2024-02-02T12:06:17.610Z,1.95
2024-02-02T12:08:59.143Z,2.45
2024-02-02T12:11:43.844Z,2.78
2024-02-02T12:14:24.075Z,2.58
2024-02-02T12:16:51.282Z,3.42
2024-02-02T12:19:18.640Z,2.60
2024-02-02T12:21:45.389Z,2.53
2024-02-02T12:24:12.227Z,3.50
2024-02-02T12:26:39.126Z,2.38
2024-02-02T12:29:05.848Z,2.83
2024-02-02T12:31:32.455Z,2.95
2024-02-02T12:33:59.269Z,3.10
2024-02-02T12:36:26.018Z,3.53
2024-02-02T12:38:52.655Z,2.70
2024-02-02T12:41:19.468Z,3.15
2024-02-02T12:43:48.876Z,2.72
2024-02-02T12:46:15.560Z,3.30
2024-02-02T12:48:42.263Z,3.05
2024-02-02T12:51:08.983Z,2.90
2024-02-02T12:53:35.821Z,3.53
2024-02-02T12:56:02.492Z,3.50
2024-02-02T12:58:29.314Z,4.78
2024-02-02T13:00:56.024Z,2.47
2024-02-02T13:03:22.678Z,2.88
2024-02-02T13:05:49.486Z,3.00
2024-02-02T13:08:30.036Z,3.38
2024-02-02T13:10:58.467Z,2.65
2024-02-02T13:13:25.133Z,2.90
2024-02-02T13:15:52.098Z,3.30
2024-02-02T13:18:23.606Z,3.20
2024-02-02T13:20:51.546Z,3.20
2024-02-02T13:23:24.153Z,3.00
2024-02-02T13:25:54.167Z,2.88
2024-02-02T13:28:20.949Z,3.03
2024-02-02T13:30:57.352Z,3.20
2024-02-02T13:33:29.429Z,3.05
2024-02-02T13:35:56.926Z,3.08
2024-02-02T13:38:23.596Z,3.10
2024-02-02T13:40:53.080Z,3.08
2024-02-02T13:43:19.888Z,2.72
2024-02-02T13:45:46.720Z,2.97
2024-02-02T13:48:13.726Z,2.45
2024-02-02T13:50:44.327Z,3.08
2024-02-02T13:53:10.987Z,3.40
2024-02-02T13:55:37.650Z,3.17
2024-02-02T13:58:04.570Z,3.00
2024-02-02T14:00:31.895Z,2.92
2024-02-02T14:03:09.080Z,3.10
2024-02-02T14:05:36.620Z,3.20
2024-02-02T14:08:03.454Z,3.33
2024-02-02T14:10:30.131Z,3.33
2024-02-02T14:12:57.226Z,3.60
2024-02-02T14:15:23.980Z,4.63
2024-02-02T14:17:59.527Z,4.00
2024-02-02T14:20:26.272Z,3.75
2024-02-02T14:22:52.887Z,4.07
2024-02-02T14:25:26.538Z,4.32
2024-02-02T14:27:53.281Z,3.95
2024-02-02T14:30:20.395Z,5.00
2024-02-02T14:32:47.399Z,4.43
2024-02-02T14:35:14.551Z,5.07
2024-02-02T14:37:41.229Z,5.57
2024-02-02T14:40:08.393Z,5.10
2024-02-02T14:42:35.012Z,3.70
2024-02-02T14:45:01.694Z,5.15
2024-02-02T14:47:28.416Z,4.20
2024-02-02T14:49:55.191Z,5.13
2024-02-02T14:52:22.127Z,4.97
2024-02-02T14:54:48.806Z,6.13
2024-02-02T14:57:15.549Z,5.93
2024-02-02T14:59:42.178Z,5.20
2024-02-02T15:02:09.367Z,5.55
2024-02-02T15:04:36.113Z,4.82
2024-02-02T15:07:03.131Z,5.50
2024-02-02T15:09:29.937Z,5.55
2024-02-02T15:12:03.047Z,5.07
2024-02-02T15:14:32.003Z,5.00
2024-02-02T15:16:58.636Z,4.72
2024-02-02T15:19:25.255Z,3.97
2024-02-02T15:21:53.643Z,5.40
2024-02-02T15:24:20.528Z,4.50
2024-02-02T15:26:47.160Z,5.68
2024-02-02T15:29:14.001Z,5.00
2024-02-02T15:31:40.612Z,5.03
2024-02-02T15:34:08.312Z,5.18
2024-02-02T15:36:36.163Z,6.03
2024-02-02T15:39:18.210Z,6.15
2024-02-02T15:41:49.601Z,4.50
2024-02-02T15:44:16.213Z,5.60
2024-02-02T15:46:42.815Z,5.65
2024-02-02T15:49:09.794Z,4.57
2024-02-02T15:51:36.790Z,5.45
2024-02-02T15:54:03.643Z,5.35
2024-02-02T15:56:30.284Z,4.65
2024-02-02T15:58:56.863Z,5.22
2024-02-02T16:01:23.506Z,5.10
2024-02-02T16:03:50.189Z,4.97
2024-02-02T16:06:21.343Z,6.03
2024-02-02T16:08:48.093Z,5.53
2024-02-02T16:11:14.736Z,4.13
2024-02-02T16:13:43.161Z,4.93
2024-02-02T16:16:09.909Z,4.65
2024-02-02T16:18:36.958Z,5.15
2024-02-02T16:21:04.277Z,5.70
2024-02-02T16:23:30.904Z,5.57
2024-02-02T16:25:57.512Z,4.32
2024-02-02T16:28:24.092Z,5.30
2024-02-02T16:30:50.756Z,4.18
2024-02-02T16:33:17.546Z,5.53
2024-02-02T16:35:44.232Z,5.00
2024-02-02T16:38:10.902Z,5.07
2024-02-02T16:40:37.518Z,5.10
2024-02-02T16:43:04.304Z,5.43
2024-02-02T16:45:30.947Z,4.57
2024-02-02T16:47:57.659Z,5.45
2024-02-02T16:50:24.302Z,4.03
2024-02-02T16:52:51.131Z,3.45
2024-02-02T16:55:17.768Z,5.20
2024-02-02T16:57:44.375Z,4.30
2024-02-02T17:00:11.371Z,4.80
2024-02-02T17:02:38.569Z,4.35
2024-02-02T17:05:05.905Z,5.32
2024-02-02T17:07:32.638Z,4.68
2024-02-02T17:09:59.572Z,4.85
2024-02-02T17:12:26.275Z,4.15
2024-02-02T17:14:52.880Z,5.03
2024-02-02T17:17:19.502Z,4.18
2024-02-02T17:19:46.096Z,4.25
2024-02-02T17:22:12.707Z,4.68
2024-02-02T17:24:40.605Z,5.45
2024-02-02T17:27:07.249Z,5.03
2024-02-02T17:29:33.838Z,4.43
2024-02-02T17:32:00.509Z,5.95
2024-02-02T17:34:27.235Z,5.20
2024-02-02T17:36:53.982Z,4.88
2024-02-02T17:39:20.666Z,4.90
2024-02-02T17:41:47.257Z,6.03
2024-02-02T17:44:14.693Z,4.55
2024-02-02T17:46:42.163Z,4.85
2024-02-02T17:49:10.655Z,5.10
2024-02-02T17:51:37.394Z,4.70
2024-02-02T17:54:04.262Z,4.70
2024-02-02T17:56:31.196Z,4.93
2024-02-02T17:58:57.805Z,4.32
2024-02-02T18:01:24.784Z,4.57
2024-02-02T18:03:52.312Z,4.45
2024-02-02T18:06:21.152Z,4.30
2024-02-02T18:08:47.991Z,4.55
2024-02-02T18:11:14.617Z,5.38
2024-02-02T18:13:41.286Z,4.90
2024-02-02T18:16:07.939Z,5.78
2024-02-02T18:18:34.627Z,4.53
2024-02-02T18:21:01.485Z,5.38
2024-02-02T18:23:28.169Z,5.32
2024-02-02T18:25:55.069Z,5.93
2024-02-02T18:28:21.659Z,4.95
2024-02-02T18:30:48.259Z,5.03
2024-02-02T18:33:14.931Z,5.05
2024-02-02T18:35:41.629Z,5.35
2024-02-02T18:38:09.217Z,4.20
2024-02-02T18:40:35.978Z,6.10
2024-02-02T18:43:02.595Z,5.65
2024-02-02T18:45:29.246Z,4.40
2024-02-02T18:47:55.912Z,3.85
2024-02-02T18:50:22.519Z,4.47
2024-02-02T18:52:49.217Z,4.88
2024-02-02T18:55:15.996Z,6.07
2024-02-02T18:57:42.824Z,4.88
2024-02-02T19:00:10.311Z,4.22
2024-02-02T19:02:37.155Z,5.03
2024-02-02T19:05:04.170Z,5.38
2024-02-02T19:07:31.054Z,6.28
2024-02-02T19:09:57.858Z,5.57
2024-02-02T19:12:24.628Z,5.50
2024-02-02T19:14:51.450Z,4.35
2024-02-02T19:17:18.043Z,5.90
2024-02-02T19:19:45.062Z,5.78
2024-02-02T19:22:11.930Z,5.35
2024-02-02T19:24:38.828Z,5.55
2024-02-02T19:27:05.558Z,4.78
2024-02-02T19:29:32.158Z,6.18
2024-02-02T19:31:59.028Z,5.95
2024-02-02T19:34:25.723Z,6.30
2024-02-02T19:36:52.533Z,6.63
2024-02-02T19:39:19.195Z,6.30
2024-02-02T19:41:46.794Z,5.35
2024-02-02T19:44:13.425Z,6.03
2024-02-02T19:46:40.035Z,4.85
2024-02-02T19:49:08.762Z,6.50
2024-02-02T19:51:40.340Z,7.00
2024-02-02T19:54:06.983Z,5.10
2024-02-02T19:56:33.875Z,5.93
2024-02-02T19:59:00.581Z,7.00
2024-02-02T20:01:27.450Z,6.10
2024-02-02T20:03:54.363Z,4.88
2024-02-02T20:06:21.540Z,6.35
2024-02-02T20:08:49.354Z,6.47
2024-02-02T20:11:17.044Z,5.75
2024-02-02T20:13:44.292Z,5.55
2024-02-02T20:16:15.017Z,5.72
2024-02-02T20:18:42.033Z,5.40
2024-02-02T20:21:08.912Z,6.03
2024-02-02T20:23:35.632Z,6.88
2024-02-02T20:26:05.482Z,6.07
2024-02-02T20:28:32.848Z,7.22
2024-02-02T20:30:59.916Z,4.82
2024-02-02T20:33:26.903Z,6.47
2024-02-02T20:35:53.582Z,5.93
2024-02-02T20:38:20.162Z,6.68
2024-02-02T20:40:46.742Z,5.85
2024-02-02T20:43:13.408Z,6.60
2024-02-02T20:45:40.018Z,7.38
2024-02-02T20:48:06.884Z,6.70
2024-02-02T20:50:33.579Z,5.32
2024-02-02T20:53:00.143Z,6.95
2024-02-02T20:55:26.787Z,5.80
2024-02-02T20:57:53.479Z,5.63
2024-02-02T21:00:20.286Z,6.70
2024-02-02T21:02:47.227Z,7.18
2024-02-02T21:05:13.993Z,7.38
2024-02-02T21:07:40.819Z,6.53
2024-02-02T21:10:07.794Z,6.90
2024-02-02T21:12:34.988Z,6.40
2024-02-02T21:15:01.973Z,5.95
2024-02-02T21:17:28.614Z,6.43
2024-02-02T21:19:55.256Z,6.10
2024-02-02T21:22:21.986Z,6.03
2024-02-02T21:24:48.706Z,7.50
2024-02-02T21:27:15.497Z,6.28
2024-02-02T21:29:42.219Z,5.55
2024-02-02T21:32:11.092Z,6.28
2024-02-02T21:34:37.845Z,6.45
2024-02-02T21:37:04.665Z,7.05
2024-02-02T21:39:31.254Z,6.50
2024-02-02T21:41:57.895Z,6.60
2024-02-02T21:44:24.964Z,6.22
2024-02-02T21:46:51.712Z,6.63
2024-02-02T21:51:45.083Z,5.80
2024-02-02T21:54:12.487Z,5.93
2024-02-02T21:56:43.042Z,6.95
2024-02-02T21:59:09.823Z,6.45
2024-02-02T22:01:38.355Z,5.82
2024-02-02T22:04:05.659Z,6.03
2024-02-02T22:06:33.158Z,6.70
2024-02-02T22:08:59.884Z,6.57
2024-02-02T22:11:26.673Z,5.90
2024-02-02T22:13:53.258Z,5.57
2024-02-02T22:16:19.954Z,5.22
2024-02-02T22:18:46.603Z,6.03
2024-02-02T22:21:13.222Z,5.97
2024-02-02T22:23:40.145Z,6.20
2024-02-02T22:26:06.865Z,7.35
2024-02-02T22:28:33.561Z,6.03
2024-02-02T22:31:00.178Z,6.85
2024-02-02T22:33:29.006Z,6.88
2024-02-02T22:35:58.458Z,6.85
2024-02-02T22:38:25.017Z,5.88
2024-02-02T22:40:51.630Z,6.75
2024-02-02T22:43:18.204Z,6.40
2024-02-02T22:45:44.973Z,6.18
2024-02-02T22:48:11.690Z,6.43
2024-02-02T22:50:38.384Z,5.82
2024-02-02T22:53:05.611Z,5.80
2024-02-02T22:55:32.216Z,7.25
2024-02-02T22:57:58.787Z,6.82
2024-02-02T23:00:25.439Z,7.10
2024-02-02T23:02:52.104Z,7.05
2024-02-02T23:05:18.709Z,8.07
2024-02-02T23:07:45.273Z,7.85
2024-02-02T23:10:11.961Z,7.20
2024-02-02T23:12:38.593Z,6.72
2024-02-02T23:15:05.753Z,6.10
2024-02-02T23:17:32.521Z,7.18
2024-02-02T23:19:59.341Z,7.40
2024-02-02T23:22:26.014Z,7.78
2024-02-02T23:24:52.671Z,6.45
2024-02-02T23:27:19.356Z,7.00
2024-02-02T23:29:45.964Z,6.00
2024-02-02T23:32:12.554Z,7.05
2024-02-02T23:34:39.216Z,6.43
2024-02-02T23:37:05.851Z,5.35
2024-02-02T23:39:32.514Z,6.03
2024-02-02T23:41:59.179Z,6.22
2024-02-02T23:44:25.740Z,5.85
2024-02-02T23:46:52.329Z,4.97
2024-02-02T23:49:19.112Z,6.28
2024-02-02T23:51:45.827Z,5.68
2024-02-02T23:54:12.504Z,5.60
2024-02-02T23:56:39.270Z,5.93
2024-02-02T23:59:05.832Z,7.15
